createdAt,value
2022-11-29T00:01:41.670Z,100562.03
2022-11-29T00:04:10.858Z,100551.81
2022-11-29T00:06:39.146Z,100549.69
2022-11-29T00:09:11.539Z,100547.75
2022-11-29T00:11:59.691Z,100541.94
2022-11-29T00:14:28.569Z,100545.25
2022-11-29T00:17:01.929Z,100543.53
2022-11-29T00:19:32.677Z,100534.97
2022-11-29T00:22:01.943Z,100547.00
2022-11-29T00:24:32.461Z,100541.78
2022-11-29T00:27:01.569Z,100539.03
2022-11-29T00:29:30.542Z,100540.94
2022-11-29T00:31:59.165Z,100532.34
2022-11-29T00:34:27.960Z,100528.19
2022-11-29T00:36:58.833Z,100531.13
2022-11-29T00:39:27.295Z,100528.63
2022-11-29T00:41:55.743Z,100524.53
2022-11-29T00:44:23.889Z,100519.56
2022-11-29T00:46:52.023Z,100520.62
2022-11-29T00:49:20.613Z,100525.37
2022-11-29T00:51:50.987Z,100530.22
2022-11-29T00:54:19.132Z,100526.66
2022-11-29T00:56:47.589Z,100518.34
2022-11-29T00:59:15.583Z,100517.38
2022-11-29T01:01:43.917Z,100518.97
2022-11-29T01:04:12.893Z,100516.84
2022-11-29T01:06:41.030Z,100517.00
2022-11-29T01:09:09.161Z,100519.56
2022-11-29T01:11:38.158Z,100504.75
2022-11-29T01:14:06.481Z,100514.28
2022-11-29T01:16:35.126Z,100507.87
2022-11-29T01:19:04.575Z,100508.75
2022-11-29T01:21:33.424Z,100507.53
2022-11-29T01:24:01.876Z,100501.72
2022-11-29T01:26:31.967Z,100507.31
2022-11-29T01:29:00.358Z,100499.75
2022-11-29T01:31:36.358Z,100510.88
2022-11-29T01:34:06.653Z,100509.97
2022-11-29T01:36:35.326Z,100506.41
2022-11-29T01:39:06.001Z,100506.19
2022-11-29T01:41:37.423Z,100511.50
2022-11-29T01:44:14.247Z,100512.09
2022-11-29T01:46:44.941Z,100503.16
2022-11-29T01:49:35.997Z,100513.25
2022-11-29T01:52:09.230Z,100508.91
2022-11-29T01:54:43.977Z,100514.78
2022-11-29T01:57:13.099Z,100513.34
2022-11-29T01:59:44.968Z,100510.03
2022-11-29T02:02:31.070Z,100505.78
2022-11-29T02:05:01.951Z,100511.91
2022-11-29T02:07:30.160Z,100510.47
2022-11-29T02:09:58.427Z,100508.31
2022-11-29T02:12:26.737Z,100506.06
2022-11-29T02:15:09.972Z,100508.41
2022-11-29T02:17:53.540Z,100507.84
2022-11-29T02:20:53.341Z,100525.16
2022-11-29T02:23:39.509Z,100509.53
2022-11-29T02:26:35.777Z,100506.62
2022-11-29T02:29:04.598Z,100520.84
2022-11-29T02:31:54.258Z,100523.41
2022-11-29T02:34:32.832Z,100512.31
2022-11-29T02:37:36.370Z,100513.34
2022-11-29T02:40:13.662Z,100521.81
2022-11-29T02:43:09.921Z,100526.94
2022-11-29T02:45:44.942Z,100530.97
2022-11-29T02:48:22.297Z,100520.09
2022-11-29T02:51:18.751Z,100514.47
2022-11-29T02:53:59.323Z,100519.66
2022-11-29T02:56:59.297Z,100521.19
2022-11-29T02:59:59.769Z,100527.16
2022-11-29T03:02:48.293Z,100535.81
2022-11-29T03:05:45.197Z,100530.91
2022-11-29T03:08:43.143Z,100532.44
2022-11-29T03:11:14.059Z,100534.06
2022-11-29T03:14:03.416Z,100530.69
2022-11-29T03:16:46.313Z,100532.47
2022-11-29T03:19:23.941Z,100533.53
2022-11-29T03:22:24.852Z,100536.94
2022-11-29T03:25:07.292Z,100545.31
2022-11-29T03:27:43.783Z,100537.34
2022-11-29T03:30:18.372Z,100525.72
2022-11-29T03:32:52.257Z,100532.63
2022-11-29T03:35:54.527Z,100539.03
2022-11-29T03:38:32.924Z,100539.91
2022-11-29T03:41:10.327Z,100532.69
2022-11-29T03:44:04.063Z,100533.91
2022-11-29T03:46:42.538Z,100545.94
2022-11-29T03:49:28.666Z,100549.63
2022-11-29T03:52:18.833Z,100549.75
2022-11-29T03:54:53.037Z,100554.91
2022-11-29T03:57:34.364Z,100553.06
2022-11-29T04:00:13.115Z,100554.91
2022-11-29T04:03:16.682Z,100558.34
2022-11-29T04:06:17.352Z,100547.34
2022-11-29T04:08:48.737Z,100560.03
2022-11-29T04:11:55.038Z,100565.16
2022-11-29T04:15:01.462Z,100565.91
2022-11-29T04:17:51.864Z,100569.66
2022-11-29T04:20:23.428Z,100565.22
2022-11-29T04:23:03.649Z,100570.69
2022-11-29T04:25:56.944Z,100574.03
2022-11-29T04:28:49.969Z,100564.66
2022-11-29T04:31:46.559Z,100574.41
2022-11-29T04:34:20.438Z,100577.06
2022-11-29T04:37:39.544Z,100576.84
2022-11-29T04:40:36.678Z,100574.78
2022-11-29T04:43:25.511Z,100563.06
2022-11-29T04:45:56.322Z,100558.50
2022-11-29T04:48:27.343Z,100570.13
2022-11-29T04:51:27.795Z,100571.31
2022-11-29T04:54:31.353Z,100568.94
2022-11-29T04:57:06.292Z,100574.06
2022-11-29T04:59:44.544Z,100573.16
2022-11-29T05:02:14.218Z,100574.00
2022-11-29T05:04:53.593Z,100580.66
2022-11-29T05:07:43.196Z,100580.78
2022-11-29T05:10:39.609Z,100576.94
2022-11-29T05:13:53.194Z,100590.34
2022-11-29T05:16:46.900Z,100584.09
2022-11-29T05:19:26.056Z,100583.75
2022-11-29T05:22:12.536Z,100589.84
2022-11-29T05:24:40.603Z,100585.16
2022-11-29T05:27:24.274Z,100589.59
2022-11-29T05:30:04.358Z,100586.00
2022-11-29T05:32:38.355Z,100586.75
2022-11-29T05:35:27.672Z,100591.44
2022-11-29T05:38:39.187Z,100591.81
2022-11-29T05:41:48.136Z,100591.62
2022-11-29T05:44:25.539Z,100590.19
2022-11-29T05:47:01.228Z,100586.25
2022-11-29T05:49:51.622Z,100599.69
2022-11-29T05:52:39.233Z,100603.44
2022-11-29T05:55:13.961Z,100598.91
2022-11-29T05:58:04.538Z,100594.13
2022-11-29T06:00:49.032Z,100611.41
2022-11-29T06:03:30.556Z,100604.56
2022-11-29T06:06:40.481Z,100614.88
2022-11-29T06:09:23.147Z,100606.37
2022-11-29T06:11:57.842Z,100617.78
2022-11-29T06:14:41.534Z,100612.63
2022-11-29T06:17:55.300Z,100613.84
2022-11-29T06:20:35.099Z,100619.56
2022-11-29T06:23:24.951Z,100623.59
2022-11-29T06:26:18.202Z,100628.47
2022-11-29T06:29:02.270Z,100627.66
2022-11-29T06:31:43.406Z,100618.22
2022-11-29T06:34:17.535Z,100625.91
2022-11-29T06:36:53.771Z,100631.41
2022-11-29T06:39:22.289Z,100639.59
2022-11-29T06:41:50.781Z,100635.19
2022-11-29T06:44:19.058Z,100639.38
2022-11-29T06:47:09.310Z,100639.53
2022-11-29T06:49:57.895Z,100635.59
2022-11-29T06:52:59.908Z,100640.37
2022-11-29T06:55:39.918Z,100633.59
2022-11-29T06:58:36.029Z,100632.66
2022-11-29T07:01:15.179Z,100626.22
2022-11-29T07:03:43.385Z,100640.78
2022-11-29T07:06:18.587Z,100633.09
2022-11-29T07:08:47.377Z,100637.44
2022-11-29T07:11:16.524Z,100639.25
2022-11-29T07:13:44.936Z,100641.03
2022-11-29T07:16:36.655Z,100646.59
2022-11-29T07:19:59.115Z,100644.88
2022-11-29T07:22:52.856Z,100643.53
2022-11-29T07:25:30.184Z,100648.25
2022-11-29T07:28:16.411Z,100646.87
2022-11-29T07:31:07.531Z,100645.72
2022-11-29T07:33:44.166Z,100644.69
2022-11-29T07:36:18.379Z,100630.44
2022-11-29T07:39:01.581Z,100634.94
2022-11-29T07:41:54.873Z,100646.84
2022-11-29T07:44:41.870Z,100647.69
2022-11-29T07:47:10.266Z,100655.31
2022-11-29T07:49:38.297Z,100646.50
2022-11-29T07:52:06.888Z,100651.53
2022-11-29T07:54:35.188Z,100658.75
2022-11-29T07:57:03.397Z,100657.28
2022-11-29T07:59:31.821Z,100655.59
2022-11-29T08:02:00.219Z,100655.59
2022-11-29T08:04:28.538Z,100669.75
2022-11-29T08:07:00.247Z,100666.53
2022-11-29T08:09:28.560Z,100646.53
2022-11-29T08:11:57.243Z,100651.84
2022-11-29T08:14:25.569Z,100648.06
2022-11-29T08:16:53.974Z,100653.59
2022-11-29T08:19:21.965Z,100656.59
2022-11-29T08:21:51.597Z,100654.19
2022-11-29T08:24:20.218Z,100645.91
2022-11-29T08:26:48.426Z,100654.84
2022-11-29T08:29:16.715Z,100646.34
2022-11-29T08:31:45.493Z,100643.50
2022-11-29T08:34:13.505Z,100643.41
2022-11-29T08:36:41.563Z,100639.88
2022-11-29T08:39:09.924Z,100651.63
2022-11-29T08:41:38.252Z,100644.47
2022-11-29T08:44:06.842Z,100652.00
2022-11-29T08:46:54.358Z,100659.69
2022-11-29T08:49:22.535Z,100659.38
2022-11-29T08:52:16.966Z,100656.56
2022-11-29T08:54:45.469Z,100650.97
2022-11-29T08:57:39.370Z,100652.41
2022-11-29T09:00:02.485Z,100656.91
2022-11-29T09:02:30.979Z,100657.53
2022-11-29T09:04:58.985Z,100660.81
2022-11-29T09:07:27.073Z,100658.63
2022-11-29T09:09:55.571Z,100669.41
2022-11-29T09:12:23.616Z,100666.25
2022-11-29T09:14:51.820Z,100655.41
2022-11-29T09:17:20.096Z,100656.00
2022-11-29T09:19:48.411Z,100657.78
2022-11-29T09:22:17.035Z,100657.31
2022-11-29T09:24:47.160Z,100657.53
2022-11-29T09:27:15.885Z,100660.56
2022-11-29T09:29:44.420Z,100647.88
2022-11-29T09:32:12.743Z,100651.03
2022-11-29T09:34:42.412Z,100658.63
2022-11-29T09:37:10.792Z,100647.53
2022-11-29T09:39:40.303Z,100647.53
2022-11-29T09:42:24.073Z,100648.66
2022-11-29T09:45:27.452Z,100651.22
2022-11-29T09:48:14.534Z,100637.78
2022-11-29T09:50:54.071Z,100648.09
2022-11-29T09:53:33.023Z,100645.38
2022-11-29T09:56:18.515Z,100642.62
2022-11-29T09:59:00.441Z,100633.50
2022-11-29T10:01:33.407Z,100641.56
2022-11-29T10:04:06.600Z,100630.75
2022-11-29T10:06:40.834Z,100633.59
2022-11-29T10:09:33.372Z,100631.97
2022-11-29T10:12:07.565Z,100635.41
2022-11-29T10:14:57.183Z,100636.47
2022-11-29T10:17:33.883Z,100635.22
2022-11-29T10:20:17.202Z,100625.00
2022-11-29T10:22:59.449Z,100627.56
2022-11-29T10:25:42.403Z,100630.37
2022-11-29T10:28:16.326Z,100633.69
2022-11-29T10:30:45.188Z,100631.75
2022-11-29T10:33:25.483Z,100624.25
2022-11-29T10:35:59.340Z,100617.25
2022-11-29T10:38:31.654Z,100622.94
2022-11-29T10:41:10.211Z,100617.16
2022-11-29T10:43:38.656Z,100608.84
2022-11-29T10:46:15.464Z,100618.56
2022-11-29T10:48:43.662Z,100616.34
2022-11-29T10:51:17.659Z,100606.84
2022-11-29T10:53:46.663Z,100604.69
2022-11-29T10:56:29.811Z,100597.25
2022-11-29T10:59:05.162Z,100592.75
2022-11-29T11:01:43.322Z,100600.38
2022-11-29T11:04:33.984Z,100595.03
2022-11-29T11:07:05.270Z,100597.41
2022-11-29T11:09:35.688Z,100591.81
2022-11-29T11:12:19.220Z,100591.53
2022-11-29T11:14:47.685Z,100596.00
2022-11-29T11:17:33.030Z,100592.31
2022-11-29T11:20:22.826Z,100589.97
2022-11-29T11:23:27.681Z,100595.81
2022-11-29T11:26:02.257Z,100593.66
2022-11-29T11:28:36.325Z,100590.69
2022-11-29T11:31:08.450Z,100599.13
2022-11-29T11:33:44.710Z,100602.72
2022-11-29T11:36:14.192Z,100598.44
2022-11-29T11:38:55.199Z,100599.69
2022-11-29T11:41:52.037Z,100592.06
2022-11-29T11:44:48.461Z,100597.19
2022-11-29T11:47:27.322Z,100592.69
2022-11-29T11:50:02.409Z,100588.28
2022-11-29T11:52:39.869Z,100591.78
2022-11-29T11:55:21.265Z,100590.34
2022-11-29T11:58:03.384Z,100591.38
2022-11-29T12:03:57.611Z,100596.47
2022-11-29T12:06:25.842Z,100595.09
2022-11-29T12:09:02.377Z,100595.34
2022-11-29T12:11:51.274Z,100587.88
2022-11-29T12:14:49.059Z,100587.00
2022-11-29T12:17:29.875Z,100587.06
2022-11-29T12:20:22.512Z,100584.75
2022-11-29T12:22:53.531Z,100587.44
2022-11-29T12:25:27.229Z,100578.66
2022-11-29T12:27:55.520Z,100584.91
2022-11-29T12:30:24.105Z,100586.50
2022-11-29T12:33:04.049Z,100587.69
2022-11-29T12:35:58.747Z,100587.88
2022-11-29T12:39:02.361Z,100582.00
2022-11-29T12:42:05.679Z,100585.25
2022-11-29T12:45:01.369Z,100589.97
2022-11-29T12:47:52.269Z,100582.38
2022-11-29T12:50:20.460Z,100583.59
2022-11-29T12:53:09.990Z,100580.28
2022-11-29T12:55:47.103Z,100573.13
2022-11-29T12:58:33.024Z,100575.28
2022-11-29T13:01:20.426Z,100580.84
2022-11-29T13:04:03.461Z,100577.34
2022-11-29T13:07:03.700Z,100577.28
2022-11-29T13:10:11.458Z,100583.19
2022-11-29T13:12:47.214Z,100584.31
2022-11-29T13:15:20.912Z,100575.25
2022-11-29T13:18:02.721Z,100581.44
2022-11-29T13:20:38.708Z,100582.13
2022-11-29T13:23:16.327Z,100577.38
2022-11-29T13:25:50.873Z,100565.13
2022-11-29T13:28:28.323Z,100576.63
2022-11-29T13:31:09.565Z,100579.00
2022-11-29T13:33:59.098Z,100566.00
2022-11-29T13:37:21.410Z,100575.69
2022-11-29T13:40:01.190Z,100567.78
2022-11-29T13:42:59.954Z,100569.97
2022-11-29T13:45:48.462Z,100574.34
2022-11-29T13:48:33.889Z,100573.13
2022-11-29T13:51:29.496Z,100571.78
2022-11-29T13:54:02.229Z,100578.72
2022-11-29T13:56:48.005Z,100563.19
2022-11-29T13:59:22.488Z,100572.37
2022-11-29T14:01:54.272Z,100570.41
2022-11-29T14:04:34.537Z,100575.00
2022-11-29T14:07:16.732Z,100578.63
2022-11-29T14:09:56.912Z,100578.38
2022-11-29T14:12:37.253Z,100570.59
2022-11-29T14:15:11.300Z,100571.47
2022-11-29T14:18:01.333Z,100577.25
2022-11-29T14:20:29.838Z,100572.91
2022-11-29T14:23:04.379Z,100573.50
2022-11-29T14:25:51.204Z,100576.00
2022-11-29T14:28:22.000Z,100577.72
2022-11-29T14:30:55.424Z,100573.13
2022-11-29T14:33:39.124Z,100579.91
2022-11-29T14:36:19.340Z,100581.12
2022-11-29T14:39:25.542Z,100578.84
2022-11-29T14:42:24.118Z,100579.13
2022-11-29T14:44:56.156Z,100577.59
2022-11-29T14:47:32.948Z,100582.41
2022-11-29T14:50:07.570Z,100577.91
2022-11-29T14:52:40.699Z,100572.41
2022-11-29T14:55:14.830Z,100573.25
2022-11-29T14:57:54.722Z,100569.50
2022-11-29T15:00:34.890Z,100566.22
2022-11-29T15:03:10.177Z,100566.06
2022-11-29T15:05:43.036Z,100572.09
2022-11-29T15:08:14.980Z,100569.59
2022-11-29T15:10:51.920Z,100567.72
2022-11-29T15:13:27.567Z,100564.44
2022-11-29T15:16:26.401Z,100564.34
2022-11-29T15:19:03.685Z,100563.88
2022-11-29T15:21:43.885Z,100574.41
2022-11-29T15:24:14.873Z,100568.53
2022-11-29T15:26:55.787Z,100558.59
2022-11-29T15:29:25.480Z,100562.13
2022-11-29T15:31:59.259Z,100574.81
2022-11-29T15:34:32.480Z,100575.78
2022-11-29T15:37:01.176Z,100570.66
2022-11-29T15:39:35.564Z,100563.09
2022-11-29T15:42:15.501Z,100574.12
2022-11-29T15:44:48.612Z,100576.81
2022-11-29T15:47:26.790Z,100567.66
2022-11-29T15:49:55.571Z,100575.47
2022-11-29T15:52:38.369Z,100573.88
2022-11-29T15:55:13.905Z,100575.47
2022-11-29T15:57:45.908Z,100587.66
2022-11-29T16:00:21.608Z,100589.19
2022-11-29T16:02:52.662Z,100587.66
2022-11-29T16:05:23.538Z,100574.00
2022-11-29T16:08:17.376Z,100586.31
2022-11-29T16:10:53.057Z,100584.72
2022-11-29T16:13:38.832Z,100587.34
2022-11-29T16:16:07.609Z,100581.94
2022-11-29T16:18:37.706Z,100578.41
2022-11-29T16:21:07.381Z,100574.06
2022-11-29T16:23:38.185Z,100581.41
2022-11-29T16:26:20.684Z,100577.31
2022-11-29T16:28:51.750Z,100582.41
2022-11-29T16:31:23.331Z,100587.06
2022-11-29T16:33:52.628Z,100584.84
2022-11-29T16:36:24.265Z,100580.91
2022-11-29T16:39:04.538Z,100582.28
2022-11-29T16:41:35.270Z,100573.94
2022-11-29T16:44:06.116Z,100588.75
2022-11-29T16:46:39.733Z,100604.31
2022-11-29T16:49:32.136Z,100596.87
2022-11-29T16:52:00.957Z,100593.88
2022-11-29T16:54:35.541Z,100600.06
2022-11-29T16:57:07.066Z,100583.53
2022-11-29T16:59:38.522Z,100588.66
2022-11-29T17:02:11.584Z,100586.00
2022-11-29T17:04:40.690Z,100586.94
2022-11-29T17:07:26.815Z,100600.91
2022-11-29T17:09:56.542Z,100608.22
2022-11-29T17:12:24.645Z,100600.34
2022-11-29T17:14:53.274Z,100611.28
2022-11-29T17:17:21.821Z,100604.03
2022-11-29T17:19:49.869Z,100606.37
2022-11-29T17:22:18.234Z,100619.34
2022-11-29T17:24:48.524Z,100613.91
2022-11-29T17:27:16.815Z,100628.13
2022-11-29T17:29:45.032Z,100620.34
2022-11-29T17:32:13.774Z,100620.22
2022-11-29T17:34:41.971Z,100626.09
2022-11-29T17:37:10.270Z,100631.34
2022-11-29T17:39:38.765Z,100629.44
2022-11-29T17:42:07.088Z,100631.94
2022-11-29T17:44:35.781Z,100635.81
2022-11-29T17:47:06.645Z,100633.59
2022-11-29T17:49:34.774Z,100644.28
2022-11-29T17:52:03.481Z,100635.56
2022-11-29T17:54:36.061Z,100637.09
2022-11-29T17:57:04.602Z,100624.72
2022-11-29T17:59:33.108Z,100635.03
2022-11-29T18:02:02.253Z,100631.69
2022-11-29T18:04:30.986Z,100631.44
2022-11-29T18:06:59.134Z,100638.22
2022-11-29T18:09:28.326Z,100635.34
2022-11-29T18:11:56.717Z,100636.50
2022-11-29T18:14:28.392Z,100638.22
2022-11-29T18:16:56.922Z,100634.25
2022-11-29T18:19:25.891Z,100628.38
2022-11-29T18:21:54.051Z,100625.47
2022-11-29T18:24:22.495Z,100632.34
2022-11-29T18:26:50.830Z,100624.78
2022-11-29T18:29:23.509Z,100626.28
2022-11-29T18:31:51.890Z,100628.91
2022-11-29T18:34:20.102Z,100635.94
2022-11-29T18:36:49.520Z,100643.25
2022-11-29T18:39:20.355Z,100638.09
2022-11-29T18:41:50.009Z,100641.91
2022-11-29T18:44:21.852Z,100625.41
2022-11-29T18:46:50.053Z,100629.31
2022-11-29T18:49:18.780Z,100628.34
2022-11-29T18:51:49.180Z,100630.69
2022-11-29T18:54:18.503Z,100626.13
2022-11-29T18:56:50.224Z,100635.06
2022-11-29T18:59:18.461Z,100627.47
2022-11-29T19:01:48.397Z,100640.28
2022-11-29T19:04:19.599Z,100631.69
2022-11-29T19:06:48.649Z,100640.94
2022-11-29T19:09:21.378Z,100646.69
2022-11-29T19:11:50.989Z,100637.16
2022-11-29T19:14:19.591Z,100630.19
2022-11-29T19:16:49.886Z,100637.28
2022-11-29T19:19:21.372Z,100641.59
2022-11-29T19:21:50.400Z,100656.12
2022-11-29T19:24:19.384Z,100657.63
2022-11-29T19:26:49.735Z,100651.00
2022-11-29T19:29:18.009Z,100280.78
2022-11-29T19:31:46.435Z,100650.69
2022-11-29T19:34:14.868Z,100664.97
2022-11-29T19:36:44.156Z,100649.63
2022-11-29T19:39:15.757Z,100659.09
2022-11-29T19:41:46.659Z,100657.41
2022-11-29T19:44:15.154Z,100651.97
2022-11-29T19:46:46.881Z,100648.88
2022-11-29T19:49:20.447Z,100641.94
2022-11-29T19:51:48.901Z,100640.69
2022-11-29T19:54:17.572Z,100642.69
2022-11-29T19:56:45.926Z,100644.88
2022-11-29T19:59:15.005Z,100642.47
2022-11-29T20:01:43.897Z,100641.16
2022-11-29T20:04:13.626Z,100642.94
2022-11-29T20:06:42.391Z,100635.81
2022-11-29T20:09:13.724Z,100641.38
2022-11-29T20:11:43.418Z,100647.88
2022-11-29T20:14:12.319Z,100638.41
2022-11-29T20:16:46.891Z,100639.63
2022-11-29T20:19:17.780Z,100641.72
2022-11-29T20:21:49.005Z,100639.47
2022-11-29T20:24:19.557Z,100634.22
2022-11-29T20:26:48.696Z,100634.22
2022-11-29T20:29:17.564Z,100634.34
2022-11-29T20:31:50.785Z,100638.03
2022-11-29T20:34:21.061Z,100634.34
2022-11-29T20:36:49.600Z,100627.56
2022-11-29T20:39:52.436Z,100632.97
2022-11-29T20:42:39.938Z,100644.34
2022-11-29T20:45:12.211Z,100649.16
2022-11-29T20:47:41.134Z,100646.38
2022-11-29T20:50:22.978Z,100639.72
2022-11-29T20:53:15.104Z,100630.84
2022-11-29T20:55:48.095Z,100622.09
2022-11-29T20:58:18.267Z,100634.47
2022-11-29T21:00:47.287Z,100629.03
2022-11-29T21:03:16.491Z,100631.19
2022-11-29T21:05:45.359Z,100631.09
2022-11-29T21:08:15.347Z,100634.78
2022-11-29T21:10:43.590Z,100631.31
2022-11-29T21:13:13.394Z,100628.06
2022-11-29T21:15:42.751Z,100626.75
2022-11-29T21:18:37.153Z,100631.25
2022-11-29T21:21:20.546Z,100637.91
2022-11-29T21:24:19.099Z,100643.69
2022-11-29T21:26:51.590Z,100631.88
2022-11-29T21:29:22.199Z,100633.81
2022-11-29T21:31:53.210Z,100644.63
2022-11-29T21:34:22.037Z,100636.50
2022-11-29T21:36:59.097Z,100634.31
2022-11-29T21:39:33.751Z,100636.16
2022-11-29T21:42:02.816Z,100631.19
2022-11-29T21:44:30.887Z,100650.03
2022-11-29T21:46:58.949Z,100646.41
2022-11-29T21:49:27.564Z,100644.31
2022-11-29T21:51:57.669Z,100647.88
2022-11-29T21:54:25.960Z,100635.84
2022-11-29T21:56:54.735Z,100640.44
2022-11-29T21:59:24.875Z,100631.81
2022-11-29T22:01:53.032Z,100629.41
2022-11-29T22:04:22.088Z,100641.34
2022-11-29T22:06:50.178Z,100640.72
2022-11-29T22:09:18.261Z,100636.38
2022-11-29T22:11:46.841Z,100636.87
2022-11-29T22:14:16.246Z,100634.63
2022-11-29T22:16:54.156Z,100631.00
2022-11-29T22:19:25.093Z,100636.63
2022-11-29T22:22:01.201Z,100638.22
2022-11-29T22:24:32.186Z,100633.00
2022-11-29T22:27:01.615Z,100631.94
2022-11-29T22:29:30.857Z,100642.97
2022-11-29T22:31:59.615Z,100636.94
2022-11-29T22:34:28.227Z,100632.91
2022-11-29T22:36:56.621Z,100642.81
2022-11-29T22:39:24.961Z,100640.69
2022-11-29T22:41:54.942Z,100637.22
2022-11-29T22:44:24.786Z,100627.47
2022-11-29T22:46:53.176Z,100633.31
2022-11-29T22:49:21.443Z,100624.00
2022-11-29T22:51:49.843Z,100631.94
2022-11-29T22:54:18.370Z,100627.53
2022-11-29T22:56:46.513Z,100626.41
2022-11-29T22:59:15.351Z,100628.84
2022-11-29T23:01:44.207Z,100615.00
2022-11-29T23:04:14.041Z,100613.94
2022-11-29T23:06:44.535Z,100608.50
2022-11-29T23:09:17.082Z,100615.88
2022-11-29T23:11:46.659Z,100609.59
2022-11-29T23:14:14.689Z,100608.53
2022-11-29T23:16:43.011Z,100615.53
2022-11-29T23:19:12.113Z,100604.88
2022-11-29T23:21:41.367Z,100610.59
2022-11-29T23:24:09.612Z,100605.47
2022-11-29T23:26:43.614Z,100599.25
2022-11-29T23:29:19.374Z,100595.63
2022-11-29T23:31:49.166Z,100600.75
2022-11-29T23:34:17.326Z,100597.53
2022-11-29T23:36:49.775Z,100590.34
2022-11-29T23:39:21.761Z,100591.09
2022-11-29T23:41:49.775Z,100586.91
2022-11-29T23:44:17.840Z,100590.56
2022-11-29T23:46:46.301Z,100595.88
2022-11-29T23:49:14.437Z,100598.84
2022-11-29T23:51:43.221Z,100590.38
2022-11-29T23:54:11.740Z,100589.63
2022-11-29T23:56:39.857Z,100598.41
2022-11-29T23:59:07.970Z,100591.75
